Aeroporto :
LOGIN :

Iscrizione | Disclaimer

   EN    FR    IT 

 










Sommario :    VFR   VFR Marginale   IFR   IFR Intensivo   IFR Molto Intensivo
Visibilità : 
Base nubi : 
>= 8 km
>= 3000ft
5 / 8 km
1000 / 3000 ft
1500m / 5 km
500 / 1000 ft
800 / 1500m
200 / 500 ft
< 800m
< 200 ft
Simboli :   Temporali  Nebbia  Neve Forte  Precipitazioni Forti  Vento > 20 kt
SIGMETs :   Varie  Temporali  Ghiacco  Turbolenza  Onda orograficha  Ceneri Vulcaniche






- Altitudine del aeroporto : 2077 ft
- Codice IATA : FMM


EDJA - Memmingen

ULTIMO METAR :
  • 301050Z 22019G29KT 9999 FEW058 M01/M04 Q1020

METARs OBSOLETI :
  • 301020Z 21020KT 9999 FEW035 M01/M05 Q1021
  • 300950Z 23019KT 9999 FEW035 SCT042 M02/M05 Q1021
  • 300920Z 22020KT 9999 SCT037 M02/M06 Q1021
  • 300850Z 23018KT 9999 FEW035 M03/M06 Q1022
  • 300820Z 23021KT 9999 FEW025 M03/M06 Q1021

TAF TAF EDJA
Valido dal 30 a 09 ore il 30 a 18 ore UTC


300800Z 3009/3018 24020G35KT 9999 FEW025
PROB30
TEMPO 3014/3016 3000 -SN BKN012
BECMG 3016/3018 27010KT



MetMap, La meteo Aeronautica in un colpo d'occhio ! - Copyright ORBIFLY Dicembre 2007 - Disclaimer

ORBIFLY MET'MAP TEAM :

Programmazione e sviluppo : Alexandra Zaïnal
Concezione : Baudouin d'Aumeries
Supporto tecnico e logistico : Manuel Goepfert
Aiuto : Marc-Olivier Méhu
Aiuto per la traduzione : Arnaldo La Scala




FONTI E CREDITI :

   NOAA